createdAt,value
2019-04-01T00:02:14.438Z,29.02
2019-04-01T00:04:44.441Z,23.60
2019-04-01T00:07:14.406Z,24.40
2019-04-01T00:09:44.754Z,30.02
2019-04-01T00:12:14.912Z,24.23
2019-04-01T00:14:44.918Z,31.15
2019-04-01T00:17:15.247Z,24.75
2019-04-01T00:19:45.250Z,26.52
2019-04-01T00:22:18.314Z,20.10
2019-04-01T00:24:51.740Z,23.80
2019-04-01T00:27:24.710Z,23.25
2019-04-01T00:29:57.580Z,21.55
2019-04-01T00:32:28.220Z,23.57
2019-04-01T00:34:59.236Z,37.70
2019-04-01T00:37:29.126Z,36.63
2019-04-01T00:40:00.352Z,42.45
2019-04-01T00:42:49.965Z,43.90
2019-04-01T00:45:22.097Z,38.50
2019-04-01T00:47:55.211Z,37.08
2019-04-01T00:50:25.449Z,35.25
2019-04-01T00:52:55.417Z,44.05
2019-04-01T00:55:25.600Z,68.60
2019-04-01T00:57:56.647Z,108.40
2019-04-01T01:00:27.382Z,581.83
2019-04-01T01:02:57.371Z,871.18
2019-04-01T01:05:27.207Z,673.23
2019-04-01T01:07:57.348Z,480.20
2019-04-01T01:10:28.564Z,403.38
2019-04-01T01:13:01.728Z,438.50
2019-04-01T01:15:32.157Z,502.55
2019-04-01T01:18:02.478Z,527.73
2019-04-01T01:20:33.325Z,499.70
2019-04-01T01:23:05.631Z,366.50
2019-04-01T01:25:37.549Z,345.12
2019-04-01T01:28:07.496Z,316.08
2019-04-01T01:30:38.499Z,115.50
2019-04-01T01:33:09.738Z,45.92
2019-04-01T01:35:39.848Z,61.28
2019-04-01T01:38:13.510Z,180.65
2019-04-01T01:41:04.476Z,187.40
2019-04-01T01:43:53.100Z,77.03
2019-04-01T01:46:24.106Z,61.55
2019-04-01T01:49:12.271Z,50.88
2019-04-01T01:51:42.317Z,51.75
2019-04-01T01:54:13.758Z,97.85
2019-04-01T01:56:43.885Z,114.42
2019-04-01T01:59:14.980Z,164.40
2019-04-01T02:01:45.912Z,123.10
2019-04-01T02:04:16.298Z,66.07
2019-04-01T02:06:46.602Z,101.85
2019-04-01T02:09:17.736Z,41.20
2019-04-01T02:12:05.590Z,46.92
2019-04-01T02:14:37.155Z,33.38
2019-04-01T02:17:06.943Z,32.38
2019-04-01T02:19:37.361Z,34.92
2019-04-01T02:22:07.557Z,55.33
2019-04-01T02:24:37.650Z,52.50
2019-04-01T02:27:07.621Z,38.55
2019-04-01T02:29:37.584Z,57.90
2019-04-01T02:32:08.645Z,63.70
2019-04-01T02:34:39.295Z,53.60
2019-04-01T02:37:09.421Z,60.83
2019-04-01T02:39:39.473Z,69.07
2019-04-01T02:42:09.911Z,142.35
2019-04-01T02:44:40.118Z,141.35
2019-04-01T02:47:10.812Z,131.60
2019-04-01T02:49:41.507Z,100.05
2019-04-01T02:52:12.136Z,166.05
2019-04-01T02:54:43.742Z,153.35
2019-04-01T02:57:14.248Z,156.95
2019-04-01T02:59:45.800Z,200.85
2019-04-01T03:02:16.076Z,206.82
2019-04-01T03:04:46.449Z,164.00
2019-04-01T03:07:16.486Z,191.60
2019-04-01T03:09:46.623Z,189.25
2019-04-01T03:12:17.803Z,213.57
2019-04-01T03:14:48.076Z,231.28
2019-04-01T03:17:19.103Z,205.03
2019-04-01T03:19:49.151Z,207.35
2019-04-01T03:22:19.291Z,190.55
2019-04-01T03:24:50.774Z,169.33
2019-04-01T03:27:20.688Z,80.85
2019-04-01T03:29:51.274Z,70.47
2019-04-01T03:32:21.280Z,120.77
2019-04-01T03:34:52.369Z,112.88
2019-04-01T03:37:22.064Z,123.47
2019-04-01T03:39:51.983Z,104.78
2019-04-01T03:42:22.113Z,91.53
2019-04-01T03:44:55.350Z,89.87
2019-04-01T03:49:56.308Z,81.80
2019-04-01T03:52:26.205Z,97.05
2019-04-01T03:54:57.669Z,51.37
2019-04-01T03:57:27.484Z,62.27
2019-04-01T03:59:58.718Z,41.55
2019-04-01T04:02:29.773Z,40.65
2019-04-01T04:05:00.880Z,35.63
2019-04-01T04:07:31.020Z,40.43
2019-04-01T04:10:03.586Z,47.60
2019-04-01T04:12:34.028Z,34.15
2019-04-01T04:15:03.962Z,32.45
2019-04-01T04:17:35.302Z,40.58
2019-04-01T04:20:07.003Z,48.85
2019-04-01T04:22:38.641Z,29.35
2019-04-01T04:25:09.081Z,29.98
2019-04-01T04:27:39.052Z,38.28
2019-04-01T04:30:08.962Z,42.58
2019-04-01T04:32:40.041Z,44.38
2019-04-01T04:35:10.956Z,50.43
2019-04-01T04:37:42.871Z,41.88
2019-04-01T04:40:12.923Z,36.53
2019-04-01T04:42:44.643Z,37.53
2019-04-01T04:45:14.880Z,26.27
2019-04-01T04:47:46.141Z,33.45
2019-04-01T04:50:16.898Z,35.48
2019-04-01T04:52:49.283Z,31.95
2019-04-01T04:55:20.502Z,32.65
2019-04-01T04:57:56.953Z,32.65
2019-04-01T05:00:28.337Z,27.70
2019-04-01T05:02:58.883Z,25.50
2019-04-01T05:05:29.569Z,24.90
2019-04-01T05:08:02.016Z,33.85
2019-04-01T05:10:32.627Z,33.23
2019-04-01T05:13:03.739Z,23.20
2019-04-01T05:15:33.921Z,34.58
2019-04-01T05:18:04.153Z,28.30
2019-04-01T05:20:34.388Z,41.23
2019-04-01T05:23:04.237Z,29.65
2019-04-01T05:25:37.063Z,27.67
2019-04-01T05:28:25.311Z,34.70
2019-04-01T05:30:57.008Z,49.83
2019-04-01T05:33:27.143Z,37.33
2019-04-01T05:35:57.677Z,35.65
2019-04-01T05:38:29.702Z,43.20
2019-04-01T05:41:00.396Z,50.10
2019-04-01T05:43:30.705Z,51.48
2019-04-01T05:46:01.130Z,50.12
2019-04-01T05:48:33.364Z,44.05
2019-04-01T05:51:03.859Z,59.27
2019-04-01T05:53:35.110Z,57.60
2019-04-01T05:56:05.167Z,51.68
2019-04-01T05:58:39.512Z,52.55
2019-04-01T06:01:12.585Z,44.58
2019-04-01T06:03:44.008Z,53.68
2019-04-01T06:06:14.295Z,53.50
2019-04-01T06:08:45.163Z,47.65
2019-04-01T06:11:15.385Z,48.10
2019-04-01T06:13:47.603Z,47.75
2019-04-01T06:16:17.916Z,59.10
2019-04-01T06:18:47.836Z,50.63
2019-04-01T06:21:18.242Z,53.58
2019-04-01T06:23:48.381Z,50.65
2019-04-01T06:26:18.840Z,88.72
2019-04-01T06:28:49.694Z,88.27
2019-04-01T06:31:23.671Z,72.35
2019-04-01T06:33:55.008Z,67.08
2019-04-01T06:36:25.967Z,73.17
2019-04-01T06:38:57.349Z,78.70
2019-04-01T06:41:29.213Z,71.87
2019-04-01T06:43:59.407Z,65.20
2019-04-01T06:46:30.677Z,68.83
2019-04-01T06:49:00.830Z,57.70
2019-04-01T06:51:31.692Z,58.92
2019-04-01T06:54:02.051Z,55.73
2019-04-01T06:56:36.179Z,55.92
2019-04-01T06:59:06.509Z,55.25
2019-04-01T07:01:37.987Z,57.62
2019-04-01T07:04:08.551Z,54.33
2019-04-01T07:06:39.835Z,50.10
2019-04-01T07:09:12.128Z,51.37
2019-04-01T07:14:11.914Z,63.80
2019-04-01T07:16:42.558Z,59.40
2019-04-01T07:19:12.889Z,56.33
2019-04-01T07:21:46.740Z,53.48
2019-04-01T07:24:17.391Z,44.88
2019-04-01T07:26:47.538Z,52.38
2019-04-01T07:29:18.823Z,50.60
2019-04-01T07:31:51.128Z,48.13
2019-04-01T07:36:50.433Z,38.05
2019-04-01T07:39:20.738Z,41.90
2019-04-01T07:41:50.921Z,33.38
2019-04-01T07:44:22.806Z,31.35
2019-04-01T07:46:53.440Z,28.90
2019-04-01T07:49:28.487Z,33.63
2019-04-01T07:51:59.716Z,33.85
2019-04-01T07:54:31.793Z,37.20
2019-04-01T07:59:34.537Z,37.15
2019-04-01T08:02:04.798Z,23.40
2019-04-01T08:04:35.409Z,22.80
2019-04-01T08:07:05.914Z,25.23
2019-04-01T08:09:35.987Z,23.52
2019-04-01T08:12:06.871Z,21.15
2019-04-01T08:14:37.252Z,22.75
2019-04-01T08:17:10.335Z,18.00
2019-04-01T08:19:40.882Z,15.53
2019-04-01T08:24:44.825Z,13.83
2019-04-01T08:27:16.220Z,12.78
2019-04-01T08:29:46.856Z,15.00
2019-04-01T08:32:23.623Z,11.97
2019-04-01T08:34:55.777Z,10.18
2019-04-01T08:37:29.356Z,9.05
2019-04-01T08:42:31.279Z,6.10
2019-04-01T08:45:02.429Z,5.42
2019-04-01T08:47:33.114Z,5.83
2019-04-01T08:50:03.321Z,7.50
2019-04-01T08:52:33.818Z,5.67
2019-04-01T08:55:04.834Z,9.38
2019-04-01T08:57:37.875Z,19.05
2019-04-01T09:00:14.559Z,4.53
2019-04-01T09:02:47.307Z,3.40
2019-04-01T09:05:17.679Z,10.80
2019-04-01T09:07:48.149Z,12.37
2019-04-01T09:10:18.271Z,18.82
2019-04-01T09:12:54.634Z,4.25
2019-04-01T09:15:24.632Z,3.42
2019-04-01T09:17:59.546Z,4.53
2019-04-01T09:20:29.296Z,6.30
2019-04-01T09:22:59.518Z,17.25
2019-04-01T09:25:36.577Z,2.65
2019-04-01T09:28:10.039Z,3.92
2019-04-01T09:30:41.247Z,3.55
2019-04-01T09:33:13.381Z,2.95
2019-04-01T09:35:46.282Z,3.87
2019-04-01T09:38:18.322Z,4.62
2019-04-01T09:40:48.069Z,2.92
2019-04-01T09:43:21.685Z,7.12
2019-04-01T09:45:54.817Z,7.97
2019-04-01T09:48:24.950Z,6.72
2019-04-01T09:51:00.688Z,6.55
2019-04-01T09:53:33.652Z,7.22
2019-04-01T09:58:36.437Z,7.60
2019-04-01T10:01:09.415Z,6.42
2019-04-01T10:03:42.669Z,5.08
2019-04-01T10:06:13.425Z,6.67
2019-04-01T10:08:47.208Z,7.33
2019-04-01T10:11:22.716Z,5.85
2019-04-01T10:13:52.621Z,4.80
2019-04-01T10:16:27.237Z,4.80
2019-04-01T10:18:59.350Z,5.37
2019-04-01T10:21:29.530Z,4.22
2019-04-01T10:24:00.939Z,7.50
2019-04-01T10:26:33.156Z,11.65
2019-04-01T10:29:04.516Z,4.67
2019-04-01T10:31:34.917Z,3.62
2019-04-01T10:34:05.491Z,4.78
2019-04-01T10:36:35.850Z,5.53
2019-04-01T10:39:08.950Z,5.75
2019-04-01T10:41:44.043Z,7.15
2019-04-01T10:44:15.477Z,7.05
2019-04-01T10:46:45.380Z,6.00
2019-04-01T10:49:21.157Z,3.67
2019-04-01T10:51:52.302Z,3.40
2019-04-01T10:54:23.014Z,4.97
2019-04-01T10:56:53.513Z,3.47
2019-04-01T10:59:25.140Z,4.05
2019-04-01T11:01:55.819Z,22.62
2019-04-01T11:04:26.719Z,5.22
2019-04-01T11:07:00.570Z,7.22
2019-04-01T11:09:38.104Z,4.03
2019-04-01T11:12:05.890Z,19.35
2019-04-01T11:14:37.808Z,13.32
2019-04-01T11:19:39.612Z,4.30
2019-04-01T11:22:10.391Z,3.80
2019-04-01T11:24:40.639Z,2.75
2019-04-01T11:27:11.998Z,2.72
2019-04-01T11:29:42.111Z,3.67
2019-04-01T11:32:14.136Z,8.38
2019-04-01T11:34:45.169Z,26.37
2019-04-01T11:37:18.701Z,11.70
2019-04-01T11:39:54.020Z,3.55
2019-04-01T11:42:26.232Z,2.45
2019-04-01T11:47:28.882Z,5.30
2019-04-01T11:49:59.318Z,2.60
2019-04-01T11:52:31.976Z,3.90
2019-04-01T11:55:06.397Z,7.70
2019-04-01T11:57:35.822Z,11.03
2019-04-01T12:00:12.797Z,8.45
2019-04-01T12:02:43.849Z,6.55
2019-04-01T12:05:17.123Z,6.97
2019-04-01T12:07:47.250Z,2.22
2019-04-01T12:10:17.281Z,4.22
2019-04-01T12:12:50.245Z,6.00
2019-04-01T12:15:21.557Z,5.45
2019-04-01T12:17:55.251Z,8.35
2019-04-01T12:20:25.285Z,3.02
2019-04-01T12:22:55.792Z,1.85
2019-04-01T12:25:25.941Z,5.80
2019-04-01T12:27:56.159Z,6.67
2019-04-01T12:30:28.526Z,4.17
2019-04-01T12:32:59.524Z,9.95
2019-04-01T12:35:31.192Z,4.13
2019-04-01T12:38:01.027Z,2.70
2019-04-01T12:40:31.831Z,10.08
2019-04-01T12:43:05.063Z,7.22
2019-04-01T12:45:34.991Z,35.85
2019-04-01T12:48:10.545Z,5.53
2019-04-01T12:50:43.319Z,4.00
2019-04-01T12:53:14.085Z,3.37
2019-04-01T12:55:48.031Z,6.30
2019-04-01T12:58:25.070Z,9.55
2019-04-01T13:00:53.674Z,8.58
2019-04-01T13:03:26.545Z,9.40
2019-04-01T13:06:00.181Z,6.75
2019-04-01T13:08:30.136Z,3.65
2019-04-01T13:11:00.245Z,9.05
2019-04-01T13:13:33.375Z,4.20
2019-04-01T13:16:03.461Z,10.18
2019-04-01T13:18:33.935Z,6.83
2019-04-01T13:21:05.686Z,54.67
2019-04-01T13:23:42.615Z,5.83
2019-04-01T13:26:12.717Z,6.55
2019-04-01T13:28:42.674Z,4.10
2019-04-01T13:31:12.850Z,7.42
2019-04-01T13:33:42.802Z,8.90
2019-04-01T13:36:14.231Z,12.45
2019-04-01T13:38:44.416Z,6.55
2019-04-01T13:41:17.343Z,23.62
2019-04-01T13:43:49.967Z,9.00
2019-04-01T13:46:23.515Z,12.18
2019-04-01T13:48:57.895Z,8.13
2019-04-01T13:51:27.294Z,3.83
2019-04-01T13:56:44.751Z,4.67
2019-04-01T13:59:17.481Z,3.72
2019-04-01T14:01:49.241Z,12.90
2019-04-01T14:04:20.374Z,32.17
2019-04-01T14:06:53.229Z,10.70
2019-04-01T14:09:23.228Z,3.85
2019-04-01T14:11:53.495Z,4.67
2019-04-01T14:14:26.102Z,6.72
2019-04-01T14:16:56.373Z,19.17
2019-04-01T14:19:29.234Z,5.50
2019-04-01T14:21:59.459Z,5.17
2019-04-01T14:24:29.276Z,8.53
2019-04-01T14:26:59.540Z,92.47
2019-04-01T14:29:33.156Z,11.83
2019-04-01T14:32:04.554Z,105.20
2019-04-01T14:34:35.601Z,14.65
2019-04-01T14:37:05.955Z,14.38
2019-04-01T14:39:37.905Z,19.52
2019-04-01T14:42:09.008Z,46.80
2019-04-01T14:44:39.066Z,14.15
2019-04-01T14:47:09.296Z,16.02
2019-04-01T14:49:39.367Z,10.35
2019-04-01T14:52:09.376Z,11.10
2019-04-01T14:54:39.624Z,6.67
2019-04-01T14:57:09.925Z,10.38
2019-04-01T14:59:40.352Z,2.35
2019-04-01T15:02:11.833Z,3.65
2019-04-01T15:04:42.454Z,8.03
2019-04-01T15:07:15.145Z,13.62
2019-04-01T15:09:47.118Z,5.70
2019-04-01T15:12:19.906Z,36.93
2019-04-01T15:14:49.683Z,6.33
2019-04-01T15:17:19.809Z,6.85
2019-04-01T15:19:51.621Z,7.45
2019-04-01T15:22:22.866Z,4.85
2019-04-01T15:27:24.245Z,3.30
2019-04-01T15:30:00.764Z,5.83
2019-04-01T15:32:31.710Z,29.48
2019-04-01T15:35:02.086Z,13.58
2019-04-01T15:37:34.454Z,35.92
2019-04-01T15:40:08.455Z,14.10
2019-04-01T15:42:38.486Z,12.50
2019-04-01T15:45:11.478Z,4.10
2019-04-01T15:47:41.997Z,5.97
2019-04-01T15:50:27.274Z,8.08
2019-04-01T15:52:44.212Z,26.10
2019-04-01T15:55:14.255Z,26.75
2019-04-01T15:57:44.120Z,17.60
2019-04-01T16:00:19.316Z,53.38
2019-04-01T16:02:47.369Z,24.25
2019-04-01T16:05:17.407Z,69.22
2019-04-01T16:07:48.459Z,66.77
2019-04-01T16:10:18.500Z,58.58
2019-04-01T16:12:48.601Z,82.10
2019-04-01T16:15:18.490Z,33.73
2019-04-01T16:17:48.699Z,31.20
2019-04-01T16:20:18.667Z,27.07
2019-04-01T16:22:49.295Z,27.98
2019-04-01T16:25:20.229Z,20.60
2019-04-01T16:27:50.276Z,58.90
2019-04-01T16:30:20.247Z,11.97
2019-04-01T16:32:50.296Z,13.25
2019-04-01T16:35:20.080Z,11.35
2019-04-01T16:37:51.871Z,13.53
2019-04-01T16:40:21.873Z,17.17
2019-04-01T16:42:55.490Z,17.57
2019-04-01T16:45:23.732Z,11.73
2019-04-01T16:47:54.070Z,17.75
2019-04-01T16:50:24.170Z,15.38
2019-04-01T16:52:54.371Z,13.32
2019-04-01T16:55:24.187Z,33.85
2019-04-01T16:57:54.202Z,46.90
2019-04-01T17:00:26.182Z,32.73
2019-04-01T17:02:57.051Z,22.35
2019-04-01T17:05:34.439Z,75.85
2019-04-01T17:08:05.587Z,36.33
2019-04-01T17:10:35.659Z,33.13
2019-04-01T17:13:07.763Z,42.88
2019-04-01T17:15:37.940Z,65.37
2019-04-01T17:18:07.914Z,55.43
2019-04-01T17:20:37.974Z,51.98
2019-04-01T17:23:08.170Z,41.65
2019-04-01T17:25:38.090Z,41.90
2019-04-01T17:28:08.415Z,47.15
2019-04-01T17:30:38.242Z,48.40
2019-04-01T17:33:08.874Z,55.28
2019-04-01T17:35:39.090Z,45.83
2019-04-01T17:38:13.399Z,45.75
2019-04-01T17:40:42.086Z,58.05
2019-04-01T17:43:13.648Z,60.08
2019-04-01T17:45:43.805Z,63.42
2019-04-01T17:48:13.949Z,67.42
2019-04-01T17:50:44.007Z,79.95
2019-04-01T17:53:14.280Z,83.33
2019-04-01T17:55:45.775Z,87.95
2019-04-01T17:58:16.094Z,79.47
2019-04-01T18:00:50.585Z,79.55
2019-04-01T18:03:29.037Z,85.53
2019-04-01T18:05:58.860Z,207.43
2019-04-01T18:08:31.394Z,308.05
2019-04-01T18:11:01.614Z,329.65
2019-04-01T18:13:31.536Z,379.52
2019-04-01T18:16:01.414Z,424.27
2019-04-01T18:18:33.940Z,332.35
2019-04-01T18:21:03.484Z,258.50
2019-04-01T18:23:40.825Z,235.80
2019-04-01T18:26:10.850Z,342.62
2019-04-01T18:28:41.243Z,326.77
2019-04-01T18:33:13.177Z,413.33
2019-04-01T18:35:44.960Z,453.18
2019-04-01T18:38:17.065Z,417.05
2019-04-01T18:40:47.335Z,426.40
2019-04-01T18:43:17.237Z,431.80
2019-04-01T18:45:51.644Z,430.65
2019-04-01T18:48:23.261Z,244.20
2019-04-01T18:50:53.170Z,304.70
2019-04-01T18:53:23.283Z,294.02
2019-04-01T18:56:03.765Z,296.02
2019-04-01T18:58:34.371Z,241.40
2019-04-01T19:01:08.994Z,208.35
2019-04-01T19:03:43.029Z,216.23
2019-04-01T19:06:12.910Z,204.25
2019-04-01T19:08:43.905Z,154.75
2019-04-01T19:11:14.207Z,174.87
2019-04-01T19:13:44.136Z,171.10
2019-04-01T19:16:16.835Z,185.65
2019-04-01T19:18:48.572Z,173.22
2019-04-01T19:21:27.755Z,185.15
2019-04-01T19:23:58.045Z,191.43
2019-04-01T19:26:28.418Z,193.75
2019-04-01T19:28:58.624Z,236.45
2019-04-01T19:31:29.054Z,213.03
2019-04-01T19:33:59.425Z,218.57
2019-04-01T19:36:32.870Z,187.68
2019-04-01T19:39:09.712Z,168.97
2019-04-01T19:41:43.139Z,183.25
2019-04-01T19:44:16.123Z,222.52
2019-04-01T19:46:56.778Z,203.77
2019-04-01T19:49:30.061Z,200.32
2019-04-01T19:52:01.898Z,211.10
2019-04-01T19:54:33.989Z,192.75
2019-04-01T19:57:03.998Z,207.98
2019-04-01T19:59:36.620Z,188.25
2019-04-01T20:04:48.451Z,189.40
2019-04-01T20:07:20.080Z,181.28
2019-04-01T20:09:51.485Z,180.75
2019-04-01T20:12:23.277Z,184.95
2019-04-01T20:14:58.967Z,173.78
2019-04-01T20:17:29.481Z,174.32
2019-04-01T20:20:07.678Z,175.55
2019-04-01T20:22:37.896Z,205.45
2019-04-01T20:25:08.878Z,187.80
2019-04-01T20:27:39.120Z,194.13
2019-04-01T20:30:14.146Z,203.95
2019-04-01T20:32:44.898Z,193.00
2019-04-01T20:35:23.765Z,187.20
2019-04-01T20:37:59.313Z,162.85
2019-04-01T20:40:31.815Z,146.60
2019-04-01T20:43:02.435Z,133.95
2019-04-01T20:45:34.217Z,145.40
2019-04-01T20:48:17.418Z,156.43
2019-04-01T20:50:50.480Z,160.30
2019-04-01T20:53:25.378Z,177.40
2019-04-01T20:56:00.825Z,132.40
2019-04-01T20:58:33.438Z,132.10
2019-04-01T21:01:09.078Z,130.00
2019-04-01T21:03:39.228Z,141.50
2019-04-01T21:06:09.375Z,162.32
2019-04-01T21:08:39.495Z,229.63
2019-04-01T21:11:11.180Z,246.00
2019-04-01T21:13:42.378Z,236.62
2019-04-01T21:16:14.255Z,273.93
2019-04-01T21:18:44.666Z,292.73
2019-04-01T21:21:18.721Z,222.58
2019-04-01T21:23:49.075Z,130.18
2019-04-01T21:26:19.532Z,189.40
2019-04-01T21:28:49.586Z,176.00
2019-04-01T21:31:19.736Z,211.45
2019-04-01T21:33:50.051Z,243.33
2019-04-01T21:36:20.499Z,217.75
2019-04-01T21:38:50.691Z,141.73
2019-04-01T21:41:20.952Z,164.60
2019-04-01T21:43:52.600Z,135.37
2019-04-01T21:46:24.150Z,169.82
2019-04-01T21:49:00.287Z,173.97
2019-04-01T21:51:30.670Z,177.72
2019-04-01T21:54:00.813Z,178.12
2019-04-01T21:56:30.767Z,126.58
2019-04-01T21:59:01.375Z,154.93
2019-04-01T22:01:34.529Z,184.32
2019-04-01T22:04:10.266Z,151.10
2019-04-01T22:06:50.413Z,162.37
2019-04-01T22:09:20.788Z,139.75
2019-04-01T22:11:53.431Z,65.22
2019-04-01T22:14:28.272Z,68.62
2019-04-01T22:16:58.422Z,89.60
2019-04-01T22:19:29.752Z,120.13
2019-04-01T22:21:59.836Z,119.85
2019-04-01T22:24:30.022Z,123.10
2019-04-01T22:27:03.875Z,120.22
2019-04-01T22:29:35.449Z,124.18
2019-04-01T22:32:05.550Z,136.37
2019-04-01T22:34:38.217Z,83.85
2019-04-01T22:37:12.720Z,101.02
2019-04-01T22:39:45.448Z,121.82
2019-04-01T22:42:14.964Z,89.10
2019-04-01T22:44:47.651Z,66.75
2019-04-01T22:47:18.020Z,68.95
2019-04-01T22:49:48.016Z,105.92
2019-04-01T22:52:17.947Z,116.65
2019-04-01T22:54:49.610Z,128.30
2019-04-01T22:57:19.711Z,122.60
2019-04-01T22:59:50.576Z,123.45
2019-04-01T23:02:23.334Z,135.15
2019-04-01T23:04:53.706Z,111.97
2019-04-01T23:07:26.430Z,119.50
2019-04-01T23:09:58.543Z,109.92
2019-04-01T23:12:29.669Z,150.80
2019-04-01T23:15:02.703Z,162.12
2019-04-01T23:17:38.727Z,163.40
2019-04-01T23:20:09.494Z,183.50
2019-04-01T23:22:39.545Z,171.43
2019-04-01T23:25:19.974Z,153.80
2019-04-01T23:27:50.137Z,101.82
2019-04-01T23:30:20.731Z,123.30
2019-04-01T23:32:51.012Z,87.88
2019-04-01T23:35:24.778Z,76.17
2019-04-01T23:37:56.659Z,70.78
2019-04-01T23:40:29.169Z,81.67
2019-04-01T23:43:02.796Z,87.17
2019-04-01T23:45:33.507Z,77.47
2019-04-01T23:48:03.641Z,86.57
2019-04-01T23:50:39.749Z,88.62
2019-04-01T23:53:14.485Z,78.07
2019-04-01T23:55:49.258Z,80.62
2019-04-01T23:58:23.501Z,80.28
